sensor_id;sensor_type;location;lat;lon;timestamp;pressure;altitude;pressure_sealevel;temperature;humidity
75656;BME280;64252;51.094;13.714;2022-10-16T00:01:35;100207.53;;;12.28;97.96
75656;BME280;64252;51.094;13.714;2022-10-16T00:04:01;100209.13;;;12.26;98.78
75656;BME280;64252;51.094;13.714;2022-10-16T00:06:29;100213.59;;;12.23;99.00
75656;BME280;64252;51.094;13.714;2022-10-16T00:08:55;100215.59;;;12.26;99.37
75656;BME280;64252;51.094;13.714;2022-10-16T00:11:24;100217.19;;;12.20;99.23
75656;BME280;64252;51.094;13.714;2022-10-16T00:13:51;100213.19;;;12.18;99.50
75656;BME280;64252;51.094;13.714;2022-10-16T00:16:20;100211.56;;;12.13;99.51
75656;BME280;64252;51.094;13.714;2022-10-16T00:18:46;100216.41;;;12.09;99.70
75656;BME280;64252;51.094;13.714;2022-10-16T00:21:15;100231.75;;;12.12;100.00
75656;BME280;64252;51.094;13.714;2022-10-16T00:23:41;100228.53;;;12.10;99.94
75656;BME280;64252;51.094;13.714;2022-10-16T00:26:10;100227.72;;;12.09;100.00
75656;BME280;64252;51.094;13.714;2022-10-16T00:28:37;100229.75;;;12.05;100.00
75656;BME280;64252;51.094;13.714;2022-10-16T00:31:08;100234.19;;;12.06;100.00
75656;BME280;64252;51.094;13.714;2022-10-16T00:33:35;100239.03;;;12.02;100.00
75656;BME280;64252;51.094;13.714;2022-10-16T00:36:02;100232.16;;;12.03;100.00
75656;BME280;64252;51.094;13.714;2022-10-16T00:38:28;100227.72;;;12.02;100.00
75656;BME280;64252;51.094;13.714;2022-10-16T00:40:54;100243.06;;;12.01;100.00
75656;BME280;64252;51.094;13.714;2022-10-16T00:46:00;100241.44;;;11.97;100.00
75656;BME280;64252;51.094;13.714;2022-10-16T00:48:26;100239.03;;;12.02;100.00
75656;BME280;64252;51.094;13.714;2022-10-16T00:50:52;100237.81;;;12.07;100.00
75656;BME280;64252;51.094;13.714;2022-10-16T00:53:19;100247.94;;;12.04;100.00
75656;BME280;64252;51.094;13.714;2022-10-16T00:55:44;100245.53;;;12.10;100.00
75656;BME280;64252;51.094;13.714;2022-10-16T00:58:11;100249.59;;;12.19;100.00
75656;BME280;64252;51.094;13.714;2022-10-16T01:00:37;100245.53;;;12.24;100.00
75656;BME280;64252;51.094;13.714;2022-10-16T01:03:21;100250.38;;;12.27;99.74
75656;BME280;64252;51.094;13.714;2022-10-16T01:05:54;100245.91;;;12.29;99.90
75656;BME280;64252;51.094;13.714;2022-10-16T01:08:32;100243.91;;;12.44;100.00
75656;BME280;64252;51.094;13.714;2022-10-16T01:11:12;100243.47;;;12.53;100.00
75656;BME280;64252;51.094;13.714;2022-10-16T01:13:42;100241.88;;;12.59;99.57
75656;BME280;64252;51.094;13.714;2022-10-16T01:16:20;100249.13;;;12.67;98.79
75656;BME280;64252;51.094;13.714;2022-10-16T01:19:12;100244.69;;;12.73;98.60
75656;BME280;64252;51.094;13.714;2022-10-16T01:21:43;100243.06;;;12.79;98.53
75656;BME280;64252;51.094;13.714;2022-10-16T01:29:39;100247.47;;;12.94;97.90
75656;BME280;64252;51.094;13.714;2022-10-16T01:32:24;100252.75;;;12.99;97.80
75656;BME280;64252;51.094;13.714;2022-10-16T01:35:09;100268.91;;;13.02;97.24
75656;BME280;64252;51.094;13.714;2022-10-16T01:37:40;100264.03;;;13.06;97.56
75656;BME280;64252;51.094;13.714;2022-10-16T01:40:13;100271.34;;;13.14;97.08
75656;BME280;64252;51.094;13.714;2022-10-16T01:42:43;100263.63;;;13.18;96.87
75656;BME280;64252;51.094;13.714;2022-10-16T01:45:13;100264.03;;;13.21;96.67
75656;BME280;64252;51.094;13.714;2022-10-16T01:47:40;100267.28;;;13.23;96.60
75656;BME280;64252;51.094;13.714;2022-10-16T01:50:08;100264.81;;;13.25;96.24
75656;BME280;64252;51.094;13.714;2022-10-16T01:52:36;100260.75;;;13.29;96.32
75656;BME280;64252;51.094;13.714;2022-10-16T01:55:04;100254.28;;;13.29;96.77
75656;BME280;64252;51.094;13.714;2022-10-16T01:57:32;100254.28;;;13.29;96.32
75656;BME280;64252;51.094;13.714;2022-10-16T02:00:02;100249.44;;;13.26;96.58
75656;BME280;64252;51.094;13.714;2022-10-16T02:02:39;100252.69;;;13.21;96.55
75656;BME280;64252;51.094;13.714;2022-10-16T02:05:59;100261.19;;;13.24;96.74
75656;BME280;64252;51.094;13.714;2022-10-16T02:08:26;100270.06;;;13.30;96.39
75656;BME280;64252;51.094;13.714;2022-10-16T02:10:57;100266.44;;;13.29;96.42
75656;BME280;64252;51.094;13.714;2022-10-16T02:13:30;100268.06;;;13.30;96.63
75656;BME280;64252;51.094;13.714;2022-10-16T02:15:58;100268.88;;;13.31;96.51
75656;BME280;64252;51.094;13.714;2022-10-16T02:18:23;100275.34;;;13.31;96.67
75656;BME280;64252;51.094;13.714;2022-10-16T02:21:00;100269.66;;;13.35;96.37
75656;BME280;64252;51.094;13.714;2022-10-16T02:26:29;100276.06;;;13.53;95.34
75656;BME280;64252;51.094;13.714;2022-10-16T02:29:00;100268.75;;;13.55;95.34
75656;BME280;64252;51.094;13.714;2022-10-16T02:31:33;100267.97;;;13.55;94.97
75656;BME280;64252;51.094;13.714;2022-10-16T02:34:00;100278.09;;;13.56;95.02
75656;BME280;64252;51.094;13.714;2022-10-16T02:36:29;100262.22;;;13.62;94.79
75656;BME280;64252;51.094;13.714;2022-10-16T02:38:55;100270.31;;;13.67;94.41
75656;BME280;64252;51.094;13.714;2022-10-16T02:41:22;100274.38;;;13.66;94.46
75656;BME280;64252;51.094;13.714;2022-10-16T02:43:48;100284.13;;;13.65;94.67
75656;BME280;64252;51.094;13.714;2022-10-16T02:46:14;100287.75;;;13.66;94.65
75656;BME280;64252;51.094;13.714;2022-10-16T02:48:39;100273.16;;;13.67;94.89
75656;BME280;64252;51.094;13.714;2022-10-16T02:51:06;100275.59;;;13.69;94.34
75656;BME280;64252;51.094;13.714;2022-10-16T02:53:31;100266.63;;;13.70;95.01
75656;BME280;64252;51.094;13.714;2022-10-16T02:55:57;100258.13;;;13.70;94.86
75656;BME280;64252;51.094;13.714;2022-10-16T02:58:22;100272.72;;;13.72;94.84
75656;BME280;64252;51.094;13.714;2022-10-16T03:00:48;100268.25;;;13.71;95.11
75656;BME280;64252;51.094;13.714;2022-10-16T03:03:14;100265.84;;;13.70;94.79
75656;BME280;64252;51.094;13.714;2022-10-16T03:05:40;100263.81;;;13.70;95.06
75656;BME280;64252;51.094;13.714;2022-10-16T03:08:07;100259.75;;;13.71;95.15
75656;BME280;64252;51.094;13.714;2022-10-16T03:10:33;100265.44;;;13.71;94.82
75656;BME280;64252;51.094;13.714;2022-10-16T03:12:58;100268.25;;;13.71;94.89
75656;BME280;64252;51.094;13.714;2022-10-16T03:15:24;100269.47;;;13.70;95.15
75656;BME280;64252;51.094;13.714;2022-10-16T03:17:49;100271.97;;;13.61;94.84
75656;BME280;64252;51.094;13.714;2022-10-16T03:20:15;100289.03;;;13.47;95.68
75656;BME280;64252;51.094;13.714;2022-10-16T03:22:40;100283.84;;;13.35;96.47
75656;BME280;64252;51.094;13.714;2022-10-16T03:25:06;100274.53;;;13.24;96.77
75656;BME280;64252;51.094;13.714;2022-10-16T03:27:31;100285.09;;;13.19;97.25
75656;BME280;64252;51.094;13.714;2022-10-16T03:29:57;100294.81;;;13.18;98.01
75656;BME280;64252;51.094;13.714;2022-10-16T03:32:23;100291.59;;;13.16;97.81
75656;BME280;64252;51.094;13.714;2022-10-16T03:34:50;100290.78;;;13.12;97.59
75656;BME280;64252;51.094;13.714;2022-10-16T03:37:15;100298.47;;;13.08;98.09
75656;BME280;64252;51.094;13.714;2022-10-16T03:39:41;100288.34;;;13.00;98.41
75656;BME280;64252;51.094;13.714;2022-10-16T03:42:06;100285.56;;;12.90;98.40
75656;BME280;64252;51.094;13.714;2022-10-16T03:44:32;100290.00;;;12.87;99.11
75656;BME280;64252;51.094;13.714;2022-10-16T03:46:57;100301.34;;;12.80;99.31
75656;BME280;64252;51.094;13.714;2022-10-16T03:49:23;100296.50;;;12.70;99.04
75656;BME280;64252;51.094;13.714;2022-10-16T03:51:48;100301.38;;;12.66;99.37
75656;BME280;64252;51.094;13.714;2022-10-16T03:54:14;100305.41;;;12.65;99.59
75656;BME280;64252;51.094;13.714;2022-10-16T03:56:39;100305.41;;;12.65;99.55
75656;BME280;64252;51.094;13.714;2022-10-16T03:59:05;100301.34;;;12.69;99.79
75656;BME280;64252;51.094;13.714;2022-10-16T04:01:31;100297.31;;;12.70;99.63
75656;BME280;64252;51.094;13.714;2022-10-16T04:03:57;100307.84;;;12.66;99.82
75656;BME280;64252;51.094;13.714;2022-10-16T04:06:22;100309.44;;;12.64;99.74
75656;BME280;64252;51.094;13.714;2022-10-16T04:08:48;100311.88;;;12.62;99.89
75656;BME280;64252;51.094;13.714;2022-10-16T04:11:13;100307.00;;;12.62;99.77
75656;BME280;64252;51.094;13.714;2022-10-16T04:13:39;100319.19;;;12.66;99.64
75656;BME280;64252;51.094;13.714;2022-10-16T04:16:04;100324.84;;;12.66;99.72
75656;BME280;64252;51.094;13.714;2022-10-16T04:18:30;100328.06;;;12.72;99.76
75656;BME280;64252;51.094;13.714;2022-10-16T04:20:55;100332.13;;;12.71;99.65
75656;BME280;64252;51.094;13.714;2022-10-16T04:23:21;100332.50;;;12.73;99.37
75656;BME280;64252;51.094;13.714;2022-10-16T04:25:48;100318.34;;;12.80;99.58
75656;BME280;64252;51.094;13.714;2022-10-16T04:28:13;100323.19;;;12.83;99.47
75656;BME280;64252;51.094;13.714;2022-10-16T04:30:39;100321.16;;;12.87;99.29
75656;BME280;64252;51.094;13.714;2022-10-16T04:33:04;100317.50;;;12.90;99.30
75656;BME280;64252;51.094;13.714;2022-10-16T04:35:30;100328.44;;;12.92;98.88
75656;BME280;64252;51.094;13.714;2022-10-16T04:37:57;100332.91;;;12.89;99.09
75656;BME280;64252;51.094;13.714;2022-10-16T04:40:23;100340.19;;;12.90;99.12
75656;BME280;64252;51.094;13.714;2022-10-16T04:42:49;100324.81;;;12.91;98.82
75656;BME280;64252;51.094;13.714;2022-10-16T04:45:14;100332.09;;;12.92;98.93
75656;BME280;64252;51.094;13.714;2022-10-16T04:47:40;100336.56;;;12.90;99.12
75656;BME280;64252;51.094;13.714;2022-10-16T04:50:05;100342.63;;;12.88;98.77
75656;BME280;64252;51.094;13.714;2022-10-16T04:52:31;100326.44;;;12.85;99.24
75656;BME280;64252;51.094;13.714;2022-10-16T04:54:57;100330.88;;;12.86;98.88
75656;BME280;64252;51.094;13.714;2022-10-16T04:57:26;100324.00;;;12.87;99.02
75656;BME280;64252;51.094;13.714;2022-10-16T04:59:52;100332.09;;;12.92;98.97
75656;BME280;64252;51.094;13.714;2022-10-16T05:02:17;100328.88;;;12.94;98.89
75656;BME280;64252;51.094;13.714;2022-10-16T05:04:43;100333.31;;;12.98;98.73
75656;BME280;64252;51.094;13.714;2022-10-16T05:07:08;100339.38;;;13.00;98.76
75656;BME280;64252;51.094;13.714;2022-10-16T05:09:34;100341.84;;;13.12;98.40
75656;BME280;64252;51.094;13.714;2022-10-16T05:11:59;100342.63;;;13.16;98.18
75656;BME280;64252;51.094;13.714;2022-10-16T05:14:25;100336.13;;;13.19;97.81
75656;BME280;64252;51.094;13.714;2022-10-16T05:16:50;100339.75;;;13.24;97.72
75656;BME280;64252;51.094;13.714;2022-10-16T05:19:17;100336.53;;;13.22;97.88
75656;BME280;64252;51.094;13.714;2022-10-16T05:21:42;100348.69;;;13.18;97.56
75656;BME280;64252;51.094;13.714;2022-10-16T05:24:07;100354.38;;;13.11;97.79
75656;BME280;64252;51.094;13.714;2022-10-16T05:26:34;100358.00;;;13.01;98.43
75656;BME280;64252;51.094;13.714;2022-10-16T05:28:59;100358.44;;;12.89;98.28
75656;BME280;64252;51.094;13.714;2022-10-16T05:31:25;100367.75;;;12.79;98.89
75656;BME280;64252;51.094;13.714;2022-10-16T05:33:50;100362.06;;;12.68;98.71
75656;BME280;64252;51.094;13.714;2022-10-16T05:36:16;100353.16;;;12.63;99.33
75656;BME280;64252;51.094;13.714;2022-10-16T05:38:43;100344.66;;;12.59;99.65
75656;BME280;64252;51.094;13.714;2022-10-16T05:41:09;100358.00;;;12.59;99.91
75656;BME280;64252;51.094;13.714;2022-10-16T05:43:34;100354.34;;;12.62;99.83
75656;BME280;64252;51.094;13.714;2022-10-16T05:46:03;100362.84;;;12.62;100.00
75656;BME280;64252;51.094;13.714;2022-10-16T05:48:29;100363.28;;;12.64;100.00
75656;BME280;64252;51.094;13.714;2022-10-16T05:51:03;100363.69;;;12.66;99.82
75656;BME280;64252;51.094;13.714;2022-10-16T05:53:31;100385.13;;;12.74;99.97
75656;BME280;64252;51.094;13.714;2022-10-16T05:55:57;100392.00;;;12.76;99.79
75656;BME280;64252;51.094;13.714;2022-10-16T05:58:23;100389.19;;;12.80;99.54
75656;BME280;64252;51.094;13.714;2022-10-16T06:01:02;100383.13;;;12.85;99.32
75656;BME280;64252;51.094;13.714;2022-10-16T06:03:28;100390.41;;;12.93;99.34
75656;BME280;64252;51.094;13.714;2022-10-16T06:05:54;100389.19;;;13.01;98.96
75656;BME280;64252;51.094;13.714;2022-10-16T06:08:21;100385.94;;;13.10;98.99
75656;BME280;64252;51.094;13.714;2022-10-16T06:10:47;100387.56;;;13.14;98.40
75656;BME280;64252;51.094;13.714;2022-10-16T06:13:13;100394.47;;;13.17;98.15
75656;BME280;64252;51.094;13.714;2022-10-16T06:15:40;100394.06;;;13.18;97.60
75656;BME280;64252;51.094;13.714;2022-10-16T06:18:09;100403.38;;;13.23;97.89
75656;BME280;64252;51.094;13.714;2022-10-16T06:20:36;100405.00;;;13.31;97.41
75656;BME280;64252;51.094;13.714;2022-10-16T06:23:03;100415.50;;;13.41;97.03
75656;BME280;64252;51.094;13.714;2022-10-16T06:25:30;100426.84;;;13.55;96.46
75656;BME280;64252;51.094;13.714;2022-10-16T06:27:56;100426.81;;;13.69;94.81
75656;BME280;64252;51.094;13.714;2022-10-16T06:30:22;100419.47;;;13.75;94.97
75656;BME280;64252;51.094;13.714;2022-10-16T06:32:48;100420.28;;;13.79;94.21
75656;BME280;64252;51.094;13.714;2022-10-16T06:35:13;100424.31;;;13.85;93.92
75656;BME280;64252;51.094;13.714;2022-10-16T06:37:39;100420.22;;;13.97;93.41
75656;BME280;64252;51.094;13.714;2022-10-16T06:40:05;100429.47;;;14.15;92.28
75656;BME280;64252;51.094;13.714;2022-10-16T06:42:30;100433.03;;;14.37;91.67
75656;BME280;64252;51.094;13.714;2022-10-16T06:44:57;100427.19;;;14.65;90.39
75656;BME280;64252;51.094;13.714;2022-10-16T06:47:22;100430.66;;;14.90;89.14
75656;BME280;64252;51.094;13.714;2022-10-16T06:49:47;100439.38;;;15.17;88.20
75656;BME280;64252;51.094;13.714;2022-10-16T06:52:13;100440.47;;;15.34;87.91
75656;BME280;64252;51.094;13.714;2022-10-16T06:54:38;100441.16;;;15.49;87.29
75656;BME280;64252;51.094;13.714;2022-10-16T06:57:04;100439.53;;;15.51;86.60
75656;BME280;64252;51.094;13.714;2022-10-16T06:59:30;100450.06;;;15.54;86.76
75656;BME280;64252;51.094;13.714;2022-10-16T07:01:55;100453.34;;;15.53;86.42
75656;BME280;64252;51.094;13.714;2022-10-16T07:04:21;100454.16;;;15.53;86.67
75656;BME280;64252;51.094;13.714;2022-10-16T07:06:46;100466.31;;;15.50;86.92
75656;BME280;64252;51.094;13.714;2022-10-16T07:09:12;100459.88;;;15.46;87.03
75656;BME280;64252;51.094;13.714;2022-10-16T07:11:39;100467.19;;;15.47;86.38
75656;BME280;64252;51.094;13.714;2022-10-16T07:14:05;100464.69;;;15.56;87.10
75656;BME280;64252;51.094;13.714;2022-10-16T07:16:35;100460.94;;;15.66;86.45
75656;BME280;64252;51.094;13.714;2022-10-16T07:19:02;100460.38;;;15.78;85.79
75656;BME280;64252;51.094;13.714;2022-10-16T07:21:30;100474.91;;;15.91;85.18
75656;BME280;64252;51.094;13.714;2022-10-16T07:23:58;100470.75;;;15.99;84.66
75656;BME280;64252;51.094;13.714;2022-10-16T07:26:25;100479.63;;;16.05;84.81
75656;BME280;64252;51.094;13.714;2022-10-16T07:28:52;100491.84;;;16.05;85.28
75656;BME280;64252;51.094;13.714;2022-10-16T07:31:19;100495.91;;;16.04;85.18
75656;BME280;64252;51.094;13.714;2022-10-16T07:33:45;100493.44;;;16.06;84.48
75656;BME280;64252;51.094;13.714;2022-10-16T07:36:14;100514.94;;;16.11;84.96
75656;BME280;64252;51.094;13.714;2022-10-16T07:38:40;100525.06;;;16.19;84.95
75656;BME280;64252;51.094;13.714;2022-10-16T07:41:14;100511.22;;;16.17;84.53
75656;BME280;64252;51.094;13.714;2022-10-16T07:43:40;100517.63;;;16.25;84.05
75656;BME280;64252;51.094;13.714;2022-10-16T07:46:10;100514.25;;;16.37;84.05
75656;BME280;64252;51.094;13.714;2022-10-16T07:48:35;100514.91;;;16.48;83.54
75656;BME280;64252;51.094;13.714;2022-10-16T07:51:03;100520.59;;;16.52;83.57
75656;BME280;64252;51.094;13.714;2022-10-16T07:53:29;100527.47;;;16.54;83.44
75656;BME280;64252;51.094;13.714;2022-10-16T07:55:59;100534.38;;;16.57;83.18
75656;BME280;64252;51.094;13.714;2022-10-16T07:58:26;100521.28;;;16.63;82.68
75656;BME280;64252;51.094;13.714;2022-10-16T08:00:54;100530.44;;;16.78;82.22
75656;BME280;64252;51.094;13.714;2022-10-16T08:03:20;100524.19;;;16.90;81.77
75656;BME280;64252;51.094;13.714;2022-10-16T08:05:45;100515.09;;;16.98;80.99
75656;BME280;64252;51.094;13.714;2022-10-16T08:08:13;100500.22;;;17.10;80.16
75656;BME280;64252;51.094;13.714;2022-10-16T08:10:39;100496.06;;;17.15;79.72
75656;BME280;64252;51.094;13.714;2022-10-16T08:13:04;100504.09;;;17.24;79.43
75656;BME280;64252;51.094;13.714;2022-10-16T08:15:30;100505.66;;;17.28;78.74
75656;BME280;64252;51.094;13.714;2022-10-16T08:18:02;100513.63;;;17.40;79.16
75656;BME280;64252;51.094;13.714;2022-10-16T08:20:29;100517.22;;;17.44;78.68
75656;BME280;64252;51.094;13.714;2022-10-16T08:23:02;100512.66;;;17.50;78.97
75656;BME280;64252;51.094;13.714;2022-10-16T08:25:35;100511.50;;;17.44;79.34
75656;BME280;64252;51.094;13.714;2022-10-16T08:28:05;100508.66;;;17.44;78.24
75656;BME280;64252;51.094;13.714;2022-10-16T08:30:31;100503.59;;;17.55;78.21
75656;BME280;64252;51.094;13.714;2022-10-16T08:32:57;100515.78;;;17.60;77.84
75656;BME280;64252;51.094;13.714;2022-10-16T08:35:23;100515.53;;;17.74;77.86
75656;BME280;64252;51.094;13.714;2022-10-16T08:37:49;100520.03;;;17.94;77.45
75656;BME280;64252;51.094;13.714;2022-10-16T08:40:36;100540.63;;;18.29;76.35
75656;BME280;64252;51.094;13.714;2022-10-16T08:48:06;100531.31;;;18.84;74.26
75656;BME280;64252;51.094;13.714;2022-10-16T08:50:37;100523.31;;;18.95;73.63
75656;BME280;64252;51.094;13.714;2022-10-16T08:53:04;100522.06;;;18.96;73.57
75656;BME280;64252;51.094;13.714;2022-10-16T08:58:12;100506.94;;;18.96;72.82
75656;BME280;64252;51.094;13.714;2022-10-16T09:00:38;100523.19;;;19.18;72.32
75656;BME280;64252;51.094;13.714;2022-10-16T09:06:04;100514.28;;;19.81;70.25
75656;BME280;64252;51.094;13.714;2022-10-16T09:15:03;100503.63;;;19.49;70.79
75656;BME280;64252;51.094;13.714;2022-10-16T09:20:20;100507.16;;;20.02;68.35
75656;BME280;64252;51.094;13.714;2022-10-16T09:23:10;100521.91;;;20.33;67.90
75656;BME280;64252;51.094;13.714;2022-10-16T09:25:39;100530.66;;;20.71;67.39
75656;BME280;64252;51.094;13.714;2022-10-16T09:28:07;100535.13;;;21.13;65.10
75656;BME280;64252;51.094;13.714;2022-10-16T09:30:33;100527.16;;;21.05;65.85
75656;BME280;64252;51.094;13.714;2022-10-16T09:32:59;100518.63;;;20.88;65.94
75656;BME280;64252;51.094;13.714;2022-10-16T09:38:02;100529.84;;;20.70;67.10
75656;BME280;64252;51.094;13.714;2022-10-16T09:40:32;100533.72;;;20.64;66.68
75656;BME280;64252;51.094;13.714;2022-10-16T09:45:28;100533.25;;;20.65;67.01
75656;BME280;64252;51.094;13.714;2022-10-16T09:47:53;100527.53;;;20.65;67.60
75656;BME280;64252;51.094;13.714;2022-10-16T09:50:27;100539.19;;;20.58;67.33
75656;BME280;64252;51.094;13.714;2022-10-16T09:53:11;100536.84;;;20.40;68.38
75656;BME280;64252;51.094;13.714;2022-10-16T09:55:47;100546.63;;;20.43;67.13
75656;BME280;64252;51.094;13.714;2022-10-16T09:58:14;100546.00;;;20.64;67.27
75656;BME280;64252;51.094;13.714;2022-10-16T10:00:41;100558.09;;;20.72;66.33
75656;BME280;64252;51.094;13.714;2022-10-16T10:03:11;100555.72;;;20.95;66.17
75656;BME280;64252;51.094;13.714;2022-10-16T10:05:39;100543.91;;;21.06;65.83
75656;BME280;64252;51.094;13.714;2022-10-16T10:08:05;100550.41;;;21.23;65.53
75656;BME280;64252;51.094;13.714;2022-10-16T10:10:41;100555.69;;;21.37;64.47
75656;BME280;64252;51.094;13.714;2022-10-16T10:13:19;100555.56;;;21.28;65.32
75656;BME280;64252;51.094;13.714;2022-10-16T10:15:45;100553.16;;;21.14;66.35
75656;BME280;64252;51.094;13.714;2022-10-16T10:18:19;100556.72;;;21.18;65.86
75656;BME280;64252;51.094;13.714;2022-10-16T10:20:57;100562.13;;;20.45;68.42
75656;BME280;64252;51.094;13.714;2022-10-16T10:23:25;100560.88;;;20.46;67.83
75656;BME280;64252;51.094;13.714;2022-10-16T10:26:01;100570.03;;;20.41;68.13
75656;BME280;64252;51.094;13.714;2022-10-16T10:28:47;100570.81;;;20.42;67.44
75656;BME280;64252;51.094;13.714;2022-10-16T10:36:51;100569.59;;;21.26;63.21
75656;BME280;64252;51.094;13.714;2022-10-16T10:47:43;100575.09;;;21.58;63.22
75656;BME280;64252;51.094;13.714;2022-10-16T10:50:20;100577.38;;;21.76;62.32
75656;BME280;64252;51.094;13.714;2022-10-16T10:55:46;100581.66;;;21.71;62.40
75656;BME280;64252;51.094;13.714;2022-10-16T10:58:38;100578.09;;;21.67;62.98
75656;BME280;64252;51.094;13.714;2022-10-16T11:07:00;100575.84;;;22.22;62.23
75656;BME280;64252;51.094;13.714;2022-10-16T11:09:34;100556.25;;;22.86;60.47
75656;BME280;64252;51.094;13.714;2022-10-16T11:12:18;100562.41;;;22.97;58.88
75656;BME280;64252;51.094;13.714;2022-10-16T11:15:18;100564.63;;;22.71;58.28
75656;BME280;64252;51.094;13.714;2022-10-16T11:18:22;100574.41;;;22.39;58.90
75656;BME280;64252;51.094;13.714;2022-10-16T11:20:54;100563.38;;;22.03;61.59
75656;BME280;64252;51.094;13.714;2022-10-16T11:23:31;100570.28;;;21.93;61.44
75656;BME280;64252;51.094;13.714;2022-10-16T11:26:03;100577.94;;;22.09;60.70
75656;BME280;64252;51.094;13.714;2022-10-16T11:28:42;100568.72;;;22.14;61.47
75656;BME280;64252;51.094;13.714;2022-10-16T11:36:48;100584.53;;;21.97;61.23
75656;BME280;64252;51.094;13.714;2022-10-16T11:39:27;100586.47;;;22.00;60.21
75656;BME280;64252;51.094;13.714;2022-10-16T11:42:22;100580.94;;;21.93;60.40
75656;BME280;64252;51.094;13.714;2022-10-16T11:45:49;100587.84;;;22.08;59.58
75656;BME280;64252;51.094;13.714;2022-10-16T11:47:51;100585.47;;;22.28;60.19
75656;BME280;64252;51.094;13.714;2022-10-16T11:50:36;100598.19;;;22.52;58.98
75656;BME280;64252;51.094;13.714;2022-10-16T11:55:54;100596.75;;;22.35;58.83
75656;BME280;64252;51.094;13.714;2022-10-16T11:58:27;100593.13;;;22.22;59.28
75656;BME280;64252;51.094;13.714;2022-10-16T12:03:30;100602.59;;;22.66;58.61
75656;BME280;64252;51.094;13.714;2022-10-16T12:06:34;100603.00;;;23.11;57.53
75656;BME280;64252;51.094;13.714;2022-10-16T12:09:03;100596.44;;;23.11;57.26
75656;BME280;64252;51.094;13.714;2022-10-16T12:14:19;100584.91;;;22.89;57.47
75656;BME280;64252;51.094;13.714;2022-10-16T12:16:56;100595.13;;;22.68;58.09
75656;BME280;64252;51.094;13.714;2022-10-16T12:19:24;100585.34;;;22.66;57.52
75656;BME280;64252;51.094;13.714;2022-10-16T12:21:51;100591.44;;;22.68;58.95
75656;BME280;64252;51.094;13.714;2022-10-16T12:24:35;100592.94;;;22.72;57.61
75656;BME280;64252;51.094;13.714;2022-10-16T12:27:03;100593.88;;;22.91;58.46
75656;BME280;64252;51.094;13.714;2022-10-16T12:29:42;100597.50;;;22.83;57.35
75656;BME280;64252;51.094;13.714;2022-10-16T12:32:38;100601.31;;;22.45;58.02
75656;BME280;64252;51.094;13.714;2022-10-16T12:35:17;100602.91;;;22.46;59.20
75656;BME280;64252;51.094;13.714;2022-10-16T12:37:44;100608.41;;;22.19;59.27
75656;BME280;64252;51.094;13.714;2022-10-16T12:40:16;100604.50;;;22.25;59.41
75656;BME280;64252;51.094;13.714;2022-10-16T12:42:49;100603.69;;;22.59;58.46
75656;BME280;64252;51.094;13.714;2022-10-16T12:45:31;100602.31;;;22.86;57.91
75656;BME280;64252;51.094;13.714;2022-10-16T12:48:01;100607.34;;;22.72;58.79
75656;BME280;64252;51.094;13.714;2022-10-16T12:50:38;100614.25;;;22.41;58.75
75656;BME280;64252;51.094;13.714;2022-10-16T12:53:19;100617.72;;;22.23;58.89
75656;BME280;64252;51.094;13.714;2022-10-16T12:56:25;100614.75;;;22.14;59.84
75656;BME280;64252;51.094;13.714;2022-10-16T13:12:29;100636.16;;;21.62;60.44
75656;BME280;64252;51.094;13.714;2022-10-16T13:20:34;100616.84;;;21.50;61.73
75656;BME280;64252;51.094;13.714;2022-10-16T13:23:13;100624.66;;;21.50;61.10
75656;BME280;64252;51.094;13.714;2022-10-16T13:25:56;100624.78;;;21.59;61.36
75656;BME280;64252;51.094;13.714;2022-10-16T13:28:30;100621.88;;;21.71;60.92
75656;BME280;64252;51.094;13.714;2022-10-16T13:30:58;100623.19;;;21.70;61.23
75656;BME280;64252;51.094;13.714;2022-10-16T13:33:41;100621.22;;;21.55;61.20
75656;BME280;64252;51.094;13.714;2022-10-16T13:36:34;100617.03;;;21.43;62.45
75656;BME280;64252;51.094;13.714;2022-10-16T13:42:09;100630.72;;;20.97;63.41
75656;BME280;64252;51.094;13.714;2022-10-16T13:44:49;100624.84;;;20.88;63.67
75656;BME280;64252;51.094;13.714;2022-10-16T13:47:20;100628.63;;;20.85;64.74
75656;BME280;64252;51.094;13.714;2022-10-16T13:49:47;100635.38;;;20.79;64.80
75656;BME280;64252;51.094;13.714;2022-10-16T13:52:23;100636.19;;;20.79;65.41
75656;BME280;64252;51.094;13.714;2022-10-16T13:54:49;100639.19;;;20.88;67.44
75656;BME280;64252;51.094;13.714;2022-10-16T13:57:17;100635.34;;;21.08;67.42
75656;BME280;64252;51.094;13.714;2022-10-16T13:59:43;100640.81;;;21.18;68.09
75656;BME280;64252;51.094;13.714;2022-10-16T14:02:37;100639.78;;;21.25;66.44
75656;BME280;64252;51.094;13.714;2022-10-16T14:05:08;100644.41;;;21.35;66.30
75656;BME280;64252;51.094;13.714;2022-10-16T14:07:35;100649.44;;;21.31;67.06
75656;BME280;64252;51.094;13.714;2022-10-16T14:10:05;100642.09;;;21.30;66.85
75656;BME280;64252;51.094;13.714;2022-10-16T14:12:32;100647.94;;;21.26;66.39
75656;BME280;64252;51.094;13.714;2022-10-16T14:14:58;100650.38;;;21.28;66.55
75656;BME280;64252;51.094;13.714;2022-10-16T14:17:29;100644.72;;;21.24;66.32
75656;BME280;64252;51.094;13.714;2022-10-16T14:19:58;100645.28;;;21.19;66.83
75656;BME280;64252;51.094;13.714;2022-10-16T14:22:40;100657.06;;;21.09;68.34
75656;BME280;64252;51.094;13.714;2022-10-16T14:28:04;100649.50;;;20.86;68.57
75656;BME280;64252;51.094;13.714;2022-10-16T14:30:33;100644.78;;;20.79;69.19
75656;BME280;64252;51.094;13.714;2022-10-16T14:33:04;100647.84;;;20.72;68.93